Time;durP1;ratioP1;P1;durP2;ratioP2;P2;SDS_P1;SDS_P2;PMS_P1;PMS_P2;Temp;Humidity;BMP_temperature;BMP_pressure;BME280_temperature;BME280_humidity;BME280_pressure;Samples;Min_cycle;Max_cycle;Signal;HPM_P1;HPM_P2
2022/08/14 00:00:07;;;;;;;;;4.50;4.50;;;;;25.11;29.60;99958.59;5075521;27;45334;-71
2022/08/14 00:02:32;;;;;;;;;5.25;5.25;;;;;25.08;29.29;99970.53;5076306;28;46234;-72
2022/08/14 00:04:58;;;;;;;;;7.00;7.00;;;;;25.01;29.27;99954.25;5075794;27;45367;-71
2022/08/14 00:07:23;;;;;;;;;5.75;5.75;;;;;25.01;29.82;99956.06;5076446;27;45440;-69
2022/08/14 00:09:48;;;;;;;;;5.75;5.75;;;;;25.02;29.89;99953.22;5076290;27;45272;-72
2022/08/14 00:12:14;;;;;;;;;6.25;6.25;;;;;25.01;29.83;99937.25;5075895;27;46028;-71
2022/08/14 00:14:39;;;;;;;;;8.00;8.00;;;;;24.99;29.76;99933.88;5075673;27;45342;-69
2022/08/14 00:17:05;;;;;;;;;6.00;6.00;;;;;24.97;29.27;99922.47;5076096;27;45252;-72
2022/08/14 00:19:30;;;;;;;;;5.00;5.00;;;;;24.99;29.60;99931.19;5076074;27;45354;-72
2022/08/14 00:21:56;;;;;;;;;5.50;5.50;;;;;24.99;30.06;99923.97;5075875;28;46283;-70
2022/08/14 00:24:22;;;;;;;;;6.25;6.25;;;;;24.97;30.05;99919.78;5075837;27;45466;-72
2022/08/14 00:26:47;;;;;;;;;6.00;6.00;;;;;24.94;30.03;99913.72;5075823;27;45267;-71
2022/08/14 00:29:12;;;;;;;;;0.25;0.25;;;;;24.93;29.77;99908.53;5075838;27;45213;-68
2022/08/14 00:31:38;;;;;;;;;6.00;6.00;;;;;24.94;29.58;99907.53;5075355;27;45303;-68
2022/08/14 00:34:03;;;;;;;;;6.25;6.25;;;;;24.94;30.06;99912.91;5075414;27;45393;-68
2022/08/14 00:36:29;;;;;;;;;5.00;5.00;;;;;24.91;29.98;99905.16;5075824;27;45700;-73
2022/08/14 00:38:54;;;;;;;;;5.00;5.00;;;;;24.89;29.82;99899.09;5076184;27;45184;-69
2022/08/14 00:41:19;;;;;;;;;6.25;6.25;;;;;24.85;30.35;99897.75;5075460;27;45340;-69
2022/08/14 00:43:45;;;;;;;;;5.25;5.25;;;;;24.83;29.61;99879.13;5075026;27;45432;-69
2022/08/14 00:46:11;;;;;;;;;3.50;3.50;;;;;24.84;30.41;99885.31;5075539;27;45403;-73
2022/08/14 00:48:37;;;;;;;;;5.25;5.25;;;;;24.87;29.89;99891.22;5075220;28;45551;-69
2022/08/14 00:51:06;;;;;;;;;4.00;4.00;;;;;24.89;29.97;99893.72;5074917;27;46050;-73
2022/08/14 00:53:31;;;;;;;;;4.75;4.75;;;;;24.92;29.79;99896.91;5075247;27;45257;-73
2022/08/14 00:55:57;;;;;;;;;5.00;5.00;;;;;24.94;29.60;99894.91;5075390;27;45282;-69
2022/08/14 00:58:32;;;;;;;;;4.50;4.50;;;;;24.96;29.66;99886.66;5074442;28;45564;-69
2022/08/14 01:00:59;;;;;;;;;5.00;5.00;;;;;24.99;30.24;99875.56;5075270;27;46165;-67
2022/08/14 01:03:28;;;;;;;;;4.50;4.50;;;;;24.99;30.06;99883.63;5075242;27;45360;-72
2022/08/14 01:05:55;;;;;;;;;4.00;4.00;;;;;25.01;29.94;99878.91;5075351;27;45454;-71
2022/08/14 01:08:24;;;;;;;;;4.75;4.75;;;;;25.01;29.57;99875.38;5075650;27;45512;-71
2022/08/14 01:10:49;;;;;;;;;3.25;3.25;;;;;25.00;29.75;99860.25;5075159;27;45505;-69
2022/08/14 01:13:19;;;;;;;;;4.00;4.00;;;;;25.01;30.22;99859.22;5073530;27;45310;-72
2022/08/14 01:15:48;;;;;;;;;4.25;4.25;;;;;24.97;29.98;99849.81;5075302;27;45346;-71
2022/08/14 01:21:14;;;;;;;;;3.75;3.75;;;;;24.99;29.77;99839.72;5062399;27;45980;-68
2022/08/14 01:23:46;;;;;;;;;5.00;5.00;;;;;25.00;30.07;99841.41;5074830;28;45234;-71
2022/08/14 01:26:14;;;;;;;;;4.00;4.00;;;;;24.99;30.07;99837.03;5075310;27;45421;-72
2022/08/14 01:28:41;;;;;;;;;8.00;8.00;;;;;24.97;30.12;99839.06;5075052;27;45318;-69
2022/08/14 01:31:11;;;;;;;;;4.00;4.00;;;;;24.96;29.85;99838.25;5074761;27;46107;-71
2022/08/14 01:33:39;;;;;;;;;4.50;4.50;;;;;24.94;30.08;99843.78;5074718;27;45386;-71
2022/08/14 01:36:06;;;;;;;;;4.50;4.50;;;;;24.94;30.50;99843.78;5074919;27;45365;-71
2022/08/14 01:38:33;;;;;;;;;4.00;4.00;;;;;24.93;30.45;99842.09;5074758;28;45438;-69
2022/08/14 01:41:13;;;;;;;;;4.00;4.00;;;;;24.94;30.60;99842.97;5074812;27;45446;-71
2022/08/14 01:44:03;;;;;;;;;4.50;4.50;;;;;24.91;30.51;99849.50;5074225;27;45466;-70
2022/08/14 01:46:32;;;;;;;;;3.50;3.50;;;;;24.92;30.32;99853.88;5074898;27;45346;-71
2022/08/14 01:48:57;;;;;;;;;6.00;6.00;;;;;24.92;30.44;99853.06;5074947;27;45367;-69
2022/08/14 01:51:27;;;;;;;;;4.00;4.00;;;;;24.91;30.48;99852.19;5074575;27;46484;-69
2022/08/14 01:54:04;;;;;;;;;5.50;5.50;;;;;24.90;30.56;99850.53;5074727;27;45218;-71
2022/08/14 01:56:36;;;;;;;;;5.00;5.00;;;;;24.91;30.72;99856.72;5074577;27;45420;-68
2022/08/14 01:59:08;;;;;;;;;6.00;5.00;;;;;24.90;30.39;99852.34;5074389;27;45345;-68
2022/08/14 02:01:34;;;;;;;;;5.50;5.50;;;;;24.87;30.54;99837.44;5074359;27;45347;-69
2022/08/14 02:04:04;;;;;;;;;4.00;4.00;;;;;24.83;30.35;99827.16;5075006;28;45948;-69
2022/08/14 02:06:29;;;;;;;;;4.00;4.00;;;;;24.80;30.76;99828.38;5075695;27;45236;-73
2022/08/14 02:08:55;;;;;;;;;3.25;3.25;;;;;24.81;30.79;99843.50;5076202;27;45348;-69
2022/08/14 02:11:21;;;;;;;;;3.25;3.25;;;;;24.77;30.44;99834.91;5075425;27;45729;-71
2022/08/14 02:13:52;;;;;;;;;5.00;5.00;;;;;24.76;30.68;99829.72;5074876;27;45420;-69
2022/08/14 02:16:28;;;;;;;;;4.50;4.50;;;;;24.74;31.08;99826.38;5076212;27;45299;-68
2022/08/14 02:18:57;;;;;;;;;4.25;4.25;;;;;24.73;30.47;99832.75;5075659;27;45250;-70
2022/08/14 02:21:24;;;;;;;;;5.00;5.00;;;;;24.70;30.87;99819.63;5073968;27;46402;-69
2022/08/14 02:23:52;;;;;;;;;5.00;5.00;;;;;24.66;31.25;99821.81;5074953;27;45452;-68
2022/08/14 02:26:24;;;;;;;;;5.00;5.00;;;;;24.63;31.09;99817.63;5077386;27;45180;-69
2022/08/14 02:28:58;;;;;;;;;6.00;6.00;;;;;24.59;31.18;99812.75;5077676;27;45442;-71
2022/08/14 02:31:28;;;;;;;;;4.00;4.00;;;;;24.56;31.37;99810.41;5077282;27;45399;-68
2022/08/14 02:33:53;;;;;;;;;6.25;6.25;;;;;24.50;31.31;99803.91;5077563;28;45267;-70
2022/08/14 02:36:19;;;;;;;;;3.25;3.25;;;;;24.44;31.95;99791.16;5077640;27;45232;-69
2022/08/14 02:38:44;;;;;;;;;5.50;5.50;;;;;24.43;31.84;99798.34;5077678;27;45360;-71
2022/08/14 02:41:11;;;;;;;;;4.25;4.25;;;;;24.42;31.73;99795.88;5077284;27;48015;-69
2022/08/14 02:43:38;;;;;;;;;4.00;4.00;;;;;24.38;31.82;99803.41;5077363;27;45416;-68
2022/08/14 02:46:09;;;;;;;;;4.00;4.00;;;;;24.33;31.89;99800.41;5077614;27;45513;-71
2022/08/14 02:48:38;;;;;;;;;6.50;6.50;;;;;24.26;31.70;99786.78;5077843;27;45341;-70
2022/08/14 02:51:06;;;;;;;;;5.50;5.50;;;;;24.26;32.28;99794.84;5077399;27;46683;-68
2022/08/14 02:53:31;;;;;;;;;5.00;5.00;;;;;24.23;32.12;99781.75;5077483;27;45361;-68
2022/08/14 02:55:59;;;;;;;;;4.50;4.50;;;;;24.21;31.96;99783.78;5077349;27;45262;-67
2022/08/14 02:58:25;;;;;;;;;5.25;5.25;;;;;24.20;32.42;99772.22;5077420;27;45235;-68
2022/08/14 03:00:51;;;;;;;;;3.50;3.50;;;;;24.13;32.18;99765.84;5077200;27;46658;-68
2022/08/14 03:03:16;;;;;;;;;6.50;5.50;;;;;24.14;32.52;99772.91;5077746;27;45496;-70
2022/08/14 03:05:42;;;;;;;;;6.00;6.00;;;;;24.07;33.09;99782.63;5077403;27;45350;-70
2022/08/14 03:08:12;;;;;;;;;6.00;6.00;;;;;24.00;32.82;99776.28;5077506;27;45297;-72
2022/08/14 03:10:39;;;;;;;;;5.00;5.00;;;;;23.93;32.53;99790.34;5077140;27;46318;-73
2022/08/14 03:13:04;;;;;;;;;7.25;7.25;;;;;23.89;32.72;99788.16;5076719;27;45353;-72
2022/08/14 03:15:45;;;;;;;;;3.00;3.00;;;;;23.87;32.69;99784.78;5077704;27;45381;-72
2022/08/14 03:18:11;;;;;;;;;4.00;4.00;;;;;23.84;32.86;99790.50;5077051;27;45192;-72
2022/08/14 03:20:37;;;;;;;;;6.25;6.25;;;;;23.81;33.23;99785.47;5076734;28;45267;-73
2022/08/14 03:23:03;;;;;;;;;7.00;7.00;;;;;23.80;33.28;99789.16;5077045;28;45406;-73
2022/08/14 03:25:32;;;;;;;;;7.00;7.00;;;;;23.76;32.98;99789.50;5077397;27;45677;-74
2022/08/14 03:28:02;;;;;;;;;6.00;6.00;;;;;23.72;33.47;99788.16;5075718;28;45374;-68
2022/08/14 03:30:28;;;;;;;;;7.00;7.00;;;;;23.73;33.39;99787.16;5076994;27;45688;-70
2022/08/14 03:32:54;;;;;;;;;5.75;5.75;;;;;23.73;33.04;99780.91;5076927;27;45397;-69
2022/08/14 03:35:20;;;;;;;;;4.25;4.25;;;;;23.70;33.54;99776.75;5076057;27;45364;-68
2022/08/14 03:37:45;;;;;;;;;5.00;5.00;;;;;23.68;33.04;99776.06;5077136;27;45532;-71
2022/08/14 03:40:11;;;;;;;;;7.25;7.25;;;;;23.67;33.58;99778.91;5076523;27;45799;-69
2022/08/14 03:42:37;;;;;;;;;5.00;5.00;;;;;23.68;33.75;99780.59;5076854;27;45412;-68
2022/08/14 03:45:05;;;;;;;;;4.00;4.00;;;;;23.69;33.52;99782.25;5077209;27;45403;-69
2022/08/14 03:47:31;;;;;;;;;6.00;6.00;;;;;23.68;33.78;99781.44;5077330;27;45558;-71
2022/08/14 03:49:57;;;;;;;;;4.50;4.50;;;;;23.69;33.20;99785.81;5076391;27;45331;-70
2022/08/14 03:52:23;;;;;;;;;4.75;4.75;;;;;23.70;33.49;99790.16;5076426;27;45285;-69
2022/08/14 03:54:48;;;;;;;;;5.00;5.00;;;;;23.71;32.85;99794.53;5076704;27;45449;-70
2022/08/14 03:57:14;;;;;;;;;5.00;5.00;;;;;23.72;33.18;99788.16;5076518;27;45396;-68
2022/08/14 03:59:39;;;;;;;;;6.25;6.25;;;;;23.73;33.03;99799.72;5076413;27;45219;-69
2022/08/14 04:02:04;;;;;;;;;4.50;4.50;;;;;23.72;33.09;99798.91;5076630;27;45406;-68
2022/08/14 04:04:31;;;;;;;;;7.50;7.50;;;;;23.74;32.77;99799.56;5076332;27;45344;-70
2022/08/14 04:06:58;;;;;;;;;5.50;5.50;;;;;23.74;33.13;99801.41;5076212;27;45300;-68
2022/08/14 04:09:23;;;;;;;;;5.00;5.00;;;;;23.70;33.25;99806.28;5075710;27;46407;-70
2022/08/14 04:11:49;;;;;;;;;4.75;4.75;;;;;23.71;33.50;99816.00;5076083;27;45294;-69
2022/08/14 04:14:15;;;;;;;;;7.00;7.00;;;;;23.67;33.27;99806.59;5075863;27;45322;-69
2022/08/14 04:16:44;;;;;;;;;6.00;6.00;;;;;23.69;33.38;99815.34;5076156;27;45357;-69
2022/08/14 04:19:10;;;;;;;;;3.00;3.00;;;;;23.67;33.34;99811.13;5074512;27;46962;-69
2022/08/14 04:21:35;;;;;;;;;5.00;5.00;;;;;23.65;33.64;99803.25;5076367;27;45320;-72
2022/08/14 04:24:01;;;;;;;;;5.00;5.00;;;;;23.64;33.20;99805.06;5076057;27;45307;-70
2022/08/14 04:26:28;;;;;;;;;6.00;6.00;;;;;23.63;33.41;99807.94;5074606;27;45537;-70
2022/08/14 04:28:55;;;;;;;;;6.50;6.50;;;;;23.60;33.31;99817.16;5074358;28;48077;-69
2022/08/14 04:31:22;;;;;;;;;3.75;3.75;;;;;23.57;33.76;99808.59;5075907;27;45396;-72
2022/08/14 04:33:48;;;;;;;;;6.00;6.00;;;;;23.52;33.63;99805.59;5076126;27;45184;-70
2022/08/14 04:36:13;;;;;;;;;6.00;6.00;;;;;23.52;33.50;99805.59;5075993;27;45208;-69
2022/08/14 04:44:06;;;;;;;;;5.50;5.50;;;;;23.55;33.56;99786.47;5075972;28;45314;-69
2022/08/14 04:46:34;;;;;;;;;4.50;4.50;;;;;23.57;33.57;99789.81;5075535;27;45660;-72
2022/08/14 04:49:00;;;;;;;;;5.25;5.25;;;;;23.56;34.08;99782.78;5075393;27;46381;-68
2022/08/14 04:51:27;;;;;;;;;3.50;3.50;;;;;23.57;33.90;99779.09;5075273;27;45385;-68
2022/08/14 04:53:54;;;;;;;;;4.50;4.50;;;;;23.55;33.70;99770.38;5075585;27;45354;-67
2022/08/14 04:56:23;;;;;;;;;6.00;6.00;;;;;23.57;33.63;99765.66;5075641;27;45430;-70
2022/08/14 04:58:50;;;;;;;;;4.50;4.50;;;;;23.57;33.74;99760.28;5073793;28;46491;-70
2022/08/14 05:01:16;;;;;;;;;4.00;4.00;;;;;23.57;34.02;99762.97;5075310;27;45411;-70
2022/08/14 05:03:42;;;;;;;;;5.25;5.25;;;;;23.57;33.87;99752.25;5075296;27;45292;-70
2022/08/14 05:06:10;;;;;;;;;5.00;5.00;;;;;23.58;33.60;99748.56;5075632;28;45301;-67
2022/08/14 05:08:36;;;;;;;;;8.00;6.00;;;;;23.60;33.73;99752.72;5073960;27;47178;-70
2022/08/14 05:11:05;;;;;;;;;5.50;5.50;;;;;23.64;33.82;99753.25;5075025;27;45377;-69
2022/08/14 05:13:32;;;;;;;;;5.50;5.50;;;;;23.63;33.87;99752.41;5075033;27;45404;-69
2022/08/14 05:15:59;;;;;;;;;3.25;3.25;;;;;23.67;34.01;99747.53;5075133;27;45553;-68
2022/08/14 05:18:30;;;;;;;;;7.00;7.00;;;;;23.69;33.64;99753.59;5074820;27;45416;-70
2022/08/14 05:20:58;;;;;;;;;5.00;5.00;;;;;23.70;33.81;99757.94;5074881;27;45351;-70
2022/08/14 05:23:27;;;;;;;;;4.25;4.25;;;;;23.72;33.47;99755.09;5074766;27;45321;-67
2022/08/14 05:26:11;;;;;;;;;5.00;5.00;;;;;23.71;33.79;99765.00;5074934;27;45369;-69
2022/08/14 05:28:39;;;;;;;;;4.00;4.00;;;;;23.75;33.69;99766.34;5074854;28;45303;-69
2022/08/14 05:31:05;;;;;;;;;4.25;4.25;;;;;23.75;33.79;99771.72;5074701;28;45289;-68
2022/08/14 05:33:33;;;;;;;;;3.25;3.25;;;;;23.78;33.51;99767.84;5074962;27;45348;-68
2022/08/14 05:36:00;;;;;;;;;5.00;5.00;;;;;23.79;33.86;99769.50;5074985;27;45416;-68
2022/08/14 05:38:32;;;;;;;;;5.75;5.75;;;;;23.83;34.17;99767.34;5074497;27;46135;-69
2022/08/14 05:40:59;;;;;;;;;5.00;5.00;;;;;23.86;34.02;99764.31;5074785;27;45340;-68
2022/08/14 05:43:25;;;;;;;;;5.25;5.25;;;;;23.87;34.03;99757.94;5074939;27;45195;-69
2022/08/14 05:45:50;;;;;;;;;4.25;4.25;;;;;23.80;33.88;99738.97;5074822;27;45164;-72
2022/08/14 05:48:15;;;;;;;;;5.75;5.75;;;;;23.86;33.84;99745.53;5074729;27;46236;-69
2022/08/14 05:50:41;;;;;;;;;4.75;4.75;;;;;23.84;34.02;99734.09;5074568;27;48832;-67
2022/08/14 05:53:07;;;;;;;;;6.00;6.00;;;;;23.85;34.23;99741.16;5074901;27;45409;-71
2022/08/14 05:55:32;;;;;;;;;4.00;4.00;;;;;23.82;33.78;99734.25;5074740;27;45204;-69
2022/08/14 05:58:01;;;;;;;;;5.00;5.00;;;;;23.77;33.95;99737.47;5074470;27;46348;-72
2022/08/14 06:00:34;;;;;;;;;5.50;5.50;;;;;23.72;33.71;99747.88;5078328;27;45319;-72
2022/08/14 06:03:00;;;;;;;;;7.00;7.00;;;;;23.67;34.05;99747.53;5078358;27;45360;-69
2022/08/14 06:05:27;;;;;;;;;5.25;5.25;;;;;23.64;34.24;99747.88;5078298;27;45499;-69
2022/08/14 06:07:52;;;;;;;;;5.25;5.25;;;;;23.61;34.45;99749.03;5078037;27;45410;-69
2022/08/14 06:10:18;;;;;;;;;4.75;4.75;;;;;23.59;34.62;99736.81;5078233;28;45317;-73
2022/08/14 06:12:44;;;;;;;;;7.00;7.00;;;;;23.52;34.57;99733.13;5077707;27;45292;-69
2022/08/14 06:15:10;;;;;;;;;6.25;6.25;;;;;23.51;34.55;99742.19;5078340;27;45548;-72
2022/08/14 06:17:50;;;;;;;;;5.50;5.50;;;;;23.49;34.55;99743.19;5077749;28;45240;-71
2022/08/14 06:20:17;;;;;;;;;5.50;5.50;;;;;23.47;35.08;99738.97;5076545;27;45478;-69
2022/08/14 06:22:43;;;;;;;;;7.00;7.00;;;;;23.45;34.60;99733.78;5078311;27;45478;-72
2022/08/14 06:25:10;;;;;;;;;7.00;7.00;;;;;23.43;34.89;99743.00;5078295;27;45366;-72
2022/08/14 06:27:38;;;;;;;;;6.00;6.00;;;;;23.41;34.72;99740.50;5077749;27;45463;-72
2022/08/14 06:30:06;;;;;;;;;5.00;5.00;;;;;23.42;34.81;99728.75;5077937;27;45302;-71
2022/08/14 06:32:31;;;;;;;;;6.50;6.50;;;;;23.43;35.42;99730.44;5077873;27;45372;-71
2022/08/14 06:34:57;;;;;;;;;4.75;4.75;;;;;23.46;34.90;99735.47;5077878;27;45615;-72
2022/08/14 06:37:22;;;;;;;;;5.00;5.00;;;;;23.48;35.27;99737.97;5076249;28;45341;-69
2022/08/14 06:39:47;;;;;;;;;5.25;5.25;;;;;23.51;35.04;99729.56;5077686;27;45470;-72
2022/08/14 06:42:13;;;;;;;;;5.75;5.75;;;;;23.52;34.94;99733.94;5076626;27;45400;-73
2022/08/14 06:44:38;;;;;;;;;6.00;6.00;;;;;23.57;35.00;99741.50;5077734;27;45301;-70
2022/08/14 06:47:03;;;;;;;;;5.75;5.75;;;;;23.58;34.85;99748.56;5077149;27;50529;-70
2022/08/14 06:49:29;;;;;;;;;5.75;5.75;;;;;23.60;35.15;99741.16;5077449;27;45272;-68
2022/08/14 06:51:55;;;;;;;;;7.75;6.75;;;;;23.66;34.91;99743.19;5077789;27;45294;-70
2022/08/14 06:54:20;;;;;;;;;6.00;6.00;;;;;23.70;35.19;99757.09;5077534;27;45525;-70
2022/08/14 06:56:45;;;;;;;;;6.25;6.25;;;;;23.73;34.90;99757.63;5077858;27;46117;-69
2022/08/14 06:59:14;;;;;;;;;7.50;7.50;;;;;23.77;35.11;99753.59;5077451;28;47488;-71
2022/08/14 07:07:08;;;;;;;;;6.00;6.00;;;;;24.01;34.76;99748.41;5077190;28;45419;-68
2022/08/14 07:09:34;;;;;;;;;5.00;5.00;;;;;24.07;34.60;99743.16;5076764;27;45442;-69
2022/08/14 07:11:59;;;;;;;;;5.50;5.50;;;;;24.17;34.91;99759.13;5076116;27;45247;-70
2022/08/14 07:14:24;;;;;;;;;5.25;5.25;;;;;24.26;34.95;99767.97;5076836;27;45655;-69
2022/08/14 07:16:50;;;;;;;;;5.50;5.50;;;;;24.33;34.30;99758.22;5076930;27;45386;-67
2022/08/14 07:19:18;;;;;;;;;6.00;6.00;;;;;24.48;34.73;99763.75;5076938;27;45446;-69
2022/08/14 07:21:43;;;;;;;;;7.25;7.25;;;;;24.61;34.33;99759.66;5077291;27;45282;-69
2022/08/14 07:24:08;;;;;;;;;7.00;7.00;;;;;24.73;33.68;99766.38;5077134;27;45391;-70
2022/08/14 07:26:34;;;;;;;;;5.75;5.75;;;;;24.84;33.44;99769.69;5076659;27;46269;-68
2022/08/14 07:28:59;;;;;;;;;3.50;3.50;;;;;24.97;33.84;99775.34;5076344;27;45503;-70
2022/08/14 07:31:24;;;;;;;;;7.75;7.75;;;;;25.10;33.46;99764.00;5076496;27;45417;-70
2022/08/14 07:33:50;;;;;;;;;4.50;4.50;;;;;25.23;33.26;99753.50;5075155;27;45507;-69
2022/08/14 07:36:17;;;;;;;;;7.00;7.00;;;;;25.37;32.96;99751.91;5076263;28;46937;-69
2022/08/14 07:38:43;;;;;;;;;7.00;7.00;;;;;25.53;32.59;99758.22;5075969;28;45418;-71
2022/08/14 07:41:11;;;;;;;;;6.00;6.00;;;;;25.68;32.40;99763.66;5076674;27;45280;-70
2022/08/14 07:43:38;;;;;;;;;4.75;4.75;;;;;25.81;32.29;99765.72;5077022;27;45780;-70
2022/08/14 07:46:04;;;;;;;;;6.00;6.00;;;;;25.90;32.20;99764.63;5075045;28;47943;-69
2022/08/14 07:48:29;;;;;;;;;6.00;6.00;;;;;26.00;31.85;99753.63;5076341;28;45337;-69
2022/08/14 07:50:54;;;;;;;;;3.25;3.25;;;;;26.10;31.91;99743.41;5076381;27;45361;-70
2022/08/14 07:53:20;;;;;;;;;6.75;6.75;;;;;26.25;31.84;99739.91;5076375;27;45543;-69
2022/08/14 07:55:46;;;;;;;;;4.00;4.00;;;;;26.30;31.06;99742.06;5076380;27;46088;-68
2022/08/14 07:58:13;;;;;;;;;7.25;7.25;;;;;26.30;31.27;99733.97;5076123;27;45235;-70
2022/08/14 08:00:39;;;;;;;;;4.75;4.75;;;;;26.30;31.35;99739.38;5077379;27;45122;-68
2022/08/14 08:03:09;;;;;;;;;6.50;6.50;;;;;26.32;31.13;99737.31;5075890;27;45607;-69
2022/08/14 08:05:37;;;;;;;;;8.75;8.75;;;;;26.31;30.87;99743.75;5075582;27;46232;-71
2022/08/14 08:08:04;;;;;;;;;6.25;6.25;;;;;26.29;31.13;99757.38;5074332;28;45299;-72
2022/08/14 08:10:31;;;;;;;;;5.75;5.75;;;;;26.32;30.65;99746.22;5074339;28;45279;-71
2022/08/14 08:13:09;;;;;;;;;6.00;6.00;;;;;26.44;30.63;99753.84;5074203;27;45335;-68
2022/08/14 08:15:38;;;;;;;;;6.75;6.75;;;;;26.53;30.44;99744.69;5075548;27;45608;-71
2022/08/14 08:18:06;;;;;;;;;4.75;4.75;;;;;26.64;30.27;99741.50;5075684;27;45354;-70
2022/08/14 08:20:33;;;;;;;;;6.50;6.50;;;;;26.78;30.04;99752.47;5075810;27;45333;-71
2022/08/14 08:23:00;;;;;;;;;33.25;31.25;;;;;26.86;29.89;99759.63;5076710;27;45424;-68
2022/08/14 08:25:30;;;;;;;;;6.00;6.00;;;;;26.91;29.97;99765.28;5078266;27;45373;-69
2022/08/14 08:27:58;;;;;;;;;6.00;6.00;;;;;26.89;30.09;99759.25;5079131;27;45391;-68
2022/08/14 08:30:24;;;;;;;;;6.50;6.50;;;;;26.88;29.85;99762.97;5078810;27;45365;-70
2022/08/14 08:32:52;;;;;;;;;6.75;6.75;;;;;26.87;30.23;99769.38;5075538;28;45593;-68
2022/08/14 08:35:20;;;;;;;;;6.00;6.00;;;;;26.91;30.04;99782.31;5074196;28;46416;-70
2022/08/14 08:37:47;;;;;;;;;5.75;5.75;;;;;27.00;30.17;99779.53;5075444;27;45322;-69
2022/08/14 08:40:22;;;;;;;;;6.00;6.00;;;;;27.07;29.93;99783.13;5075204;27;45450;-69
2022/08/14 08:42:48;;;;;;;;;5.75;5.75;;;;;27.10;30.20;99783.59;5075579;27;45384;-68
2022/08/14 08:45:15;;;;;;;;;5.75;5.75;;;;;27.18;30.03;99766.44;5074791;28;46029;-69
2022/08/14 08:47:41;;;;;;;;;6.50;6.50;;;;;27.32;29.92;99755.78;5075300;27;45318;-69
2022/08/14 08:50:23;;;;;;;;;8.00;8.00;;;;;27.45;30.22;99761.31;5075419;27;45322;-70
2022/08/14 08:52:51;;;;;;;;;7.25;7.25;;;;;27.53;30.31;99753.09;5075729;27;45701;-69
2022/08/14 08:55:24;;;;;;;;;0.00;0.00;;;;;27.60;30.48;99753.19;5075195;27;46414;-69
2022/08/14 08:57:57;;;;;;;;;8.25;8.25;;;;;27.55;30.92;99744.81;5073689;27;45459;-69
2022/08/14 09:00:23;;;;;;;;;5.75;5.75;;;;;27.47;31.55;99742.22;5075233;27;45396;-68
2022/08/14 09:02:58;;;;;;;;;8.25;8.25;;;;;27.38;31.72;99739.66;5075634;28;45300;-67
2022/08/14 09:05:24;;;;;;;;;9.75;9.75;;;;;27.35;33.23;99733.78;5074715;27;46569;-71
2022/08/14 09:07:50;;;;;;;;;7.50;7.50;;;;;27.43;32.99;99730.97;5074767;27;45471;-68
2022/08/14 09:10:15;;;;;;;;;8.00;8.00;;;;;27.51;32.93;99738.13;5074453;27;45256;-68
2022/08/14 09:12:40;;;;;;;;;9.75;9.75;;;;;27.64;32.68;99742.84;5074788;27;45550;-69
2022/08/14 09:15:08;;;;;;;;;8.50;8.50;;;;;27.82;32.23;99755.84;5072683;27;53952;-70
2022/08/14 09:17:35;;;;;;;;;9.50;9.50;;;;;27.96;32.62;99767.63;5074592;27;45421;-69
2022/08/14 09:20:01;;;;;;;;;10.00;10.00;;;;;28.11;31.87;99746.72;5074804;27;45476;-70
2022/08/14 09:22:27;;;;;;;;;7.75;7.75;;;;;28.20;32.81;99735.78;5074850;27;45278;-70
2022/08/14 09:24:54;;;;;;;;;7.50;7.50;;;;;28.30;32.96;99732.75;5072989;28;47905;-68
2022/08/14 09:27:19;;;;;;;;;6.25;6.25;;;;;28.32;32.49;99726.09;5074849;27;45460;-69
2022/08/14 09:29:44;;;;;;;;;7.00;7.00;;;;;28.34;32.36;99742.94;5074496;27;45846;-68
2022/08/14 09:32:19;;;;;;;;;7.00;7.00;;;;;28.39;32.92;99748.59;5074476;27;45341;-70
2022/08/14 09:34:55;;;;;;;;;7.50;7.50;;;;;28.49;33.01;99756.34;5071565;28;47195;-69
2022/08/14 09:37:58;;;;;;;;;7.25;7.25;;;;;28.55;32.71;99735.75;5074740;27;45259;-69
2022/08/14 09:40:49;;;;;;;;;7.25;7.25;;;;;28.74;32.87;99753.13;5074421;27;45263;-68
2022/08/14 09:43:57;;;;;;;;;8.00;8.00;;;;;28.88;32.06;99743.25;5074699;28;45500;-71
2022/08/14 09:46:26;;;;;;;;;6.75;6.75;;;;;28.97;32.21;99742.03;5074443;27;46204;-68
2022/08/14 09:49:07;;;;;;;;;6.00;6.00;;;;;29.04;31.72;99757.44;5074295;27;45187;-68
2022/08/14 09:51:41;;;;;;;;;5.50;5.50;;;;;29.11;31.70;99759.13;5074322;27;45336;-68
2022/08/14 09:54:11;;;;;;;;;5.25;5.25;;;;;29.31;31.58;99747.53;5072885;28;45411;-70
2022/08/14 09:56:48;;;;;;;;;5.00;5.00;;;;;29.49;30.96;99744.22;5073779;27;47143;-72
2022/08/14 09:59:20;;;;;;;;;3.75;3.75;;;;;29.63;31.20;99750.50;5072556;27;45862;-69
2022/08/14 10:01:47;;;;;;;;;5.75;5.75;;;;;29.65;30.89;99742.16;5074201;27;45519;-68
2022/08/14 10:04:27;;;;;;;;;6.75;6.75;;;;;29.74;30.97;99740.94;5074406;27;45508;-68
2022/08/14 10:06:53;;;;;;;;;5.75;5.75;;;;;29.94;31.37;99745.50;5074405;27;46204;-70
2022/08/14 10:09:18;;;;;;;;;6.50;6.50;;;;;30.09;30.94;99743.44;5074236;27;45363;-68
2022/08/14 10:11:58;;;;;;;;;8.00;8.00;;;;;30.20;30.50;99741.94;5074440;27;45355;-68
2022/08/14 10:14:27;;;;;;;;;6.50;6.50;;;;;30.36;30.41;99739.84;5074484;27;45494;-69
2022/08/14 10:16:56;;;;;;;;;5.75;5.75;;;;;30.46;30.41;99742.94;5074241;27;46571;-68
2022/08/14 10:19:27;;;;;;;;;6.00;6.00;;;;;30.51;30.19;99732.28;5074026;27;45312;-68
2022/08/14 10:22:06;;;;;;;;;6.00;6.00;;;;;30.54;29.99;99734.56;5072806;27;45346;-70
2022/08/14 10:24:45;;;;;;;;;4.75;3.00;;;;;30.55;30.12;99735.38;5073477;27;45581;-70
2022/08/14 10:27:23;;;;;;;;;5.75;5.75;;;;;30.57;30.13;99733.28;5072832;27;45651;-68
2022/08/14 10:29:53;;;;;;;;;6.75;6.75;;;;;30.57;29.75;99725.97;5073087;27;45411;-69
2022/08/14 10:32:21;;;;;;;;;7.00;7.00;;;;;30.65;29.90;99730.34;5073764;27;45286;-71
2022/08/14 10:34:47;;;;;;;;;5.00;5.00;;;;;30.78;29.67;99736.78;5074062;27;45394;-69
2022/08/14 10:37:17;;;;;;;;;6.00;6.00;;;;;30.85;29.61;99745.75;5074880;27;46989;-69
2022/08/14 10:39:56;;;;;;;;;6.25;6.25;;;;;30.87;29.90;99743.63;5075642;27;45268;-67
2022/08/14 10:42:21;;;;;;;;;7.50;7.50;;;;;30.95;29.54;99747.97;5077433;27;45494;-70
2022/08/14 10:44:48;;;;;;;;;5.00;5.00;;;;;31.07;29.30;99740.81;5078299;27;45548;-69
2022/08/14 10:47:16;;;;;;;;;7.00;7.00;;;;;31.21;29.87;99751.63;5079029;27;45754;-70
2022/08/14 10:49:54;;;;;;;;;9.25;9.25;;;;;31.29;29.21;99754.91;5079214;28;45261;-69
2022/08/14 10:52:26;;;;;;;;;5.75;5.75;;;;;31.42;29.36;99743.13;5079724;27;45225;-70
2022/08/14 10:55:07;;;;;;;;;8.50;8.50;;;;;31.57;29.24;99750.13;5080067;28;45200;-69
2022/08/14 10:57:34;;;;;;;;;9.00;9.00;;;;;31.63;29.12;99741.91;5077317;27;45777;-69
2022/08/14 11:00:12;;;;;;;;;6.50;6.50;;;;;31.80;29.13;99746.81;5076779;27;45444;-68
2022/08/14 11:02:38;;;;;;;;;5.00;5.00;;;;;31.93;28.58;99747.78;5077098;27;45268;-69
2022/08/14 11:05:17;;;;;;;;;7.00;7.00;;;;;32.06;28.89;99750.38;5076468;27;45230;-69
2022/08/14 11:08:02;;;;;;;;;5.50;5.50;;;;;32.10;28.69;99758.91;5076668;27;46020;-67
2022/08/14 11:10:46;;;;;;;;;6.75;6.75;;;;;32.05;28.47;99749.53;5076384;27;45520;-68
2022/08/14 11:13:20;;;;;;;;;7.00;7.00;;;;;32.06;28.42;99761.25;5076477;27;45983;-69
2022/08/14 11:15:47;;;;;;;;;6.25;6.25;;;;;32.06;28.64;99743.03;5076694;27;45247;-68
2022/08/14 11:18:13;;;;;;;;;5.75;5.75;;;;;32.11;28.35;99755.13;5076585;27;46312;-70
2022/08/14 11:20:48;;;;;;;;;5.50;5.50;;;;;32.16;28.40;99763.44;5076152;27;45464;-67
2022/08/14 11:23:14;;;;;;;;;7.00;7.00;;;;;32.05;28.40;99754.16;5075250;28;45432;-69
2022/08/14 11:25:44;;;;;;;;;5.00;5.00;;;;;32.01;28.93;99755.66;5076817;27;45390;-68
2022/08/14 11:28:13;;;;;;;;;7.25;7.25;;;;;31.95;28.84;99762.00;5076601;27;46306;-72
2022/08/14 11:30:41;;;;;;;;;6.25;6.00;;;;;31.89;28.75;99753.66;5076614;27;45442;-69
2022/08/14 11:33:07;;;;;;;;;6.25;6.25;;;;;31.88;29.10;99752.00;5076759;27;45411;-69
2022/08/14 11:35:33;;;;;;;;;6.75;6.75;;;;;31.94;28.82;99754.88;5077001;27;45523;-68
2022/08/14 11:38:01;;;;;;;;;6.00;6.00;;;;;31.99;29.35;99755.84;5076903;27;46171;-73
2022/08/14 11:40:30;;;;;;;;;6.75;6.75;;;;;31.98;29.10;99761.53;5076862;28;45457;-68
2022/08/14 11:42:57;;;;;;;;;7.50;7.50;;;;;31.89;29.46;99756.38;5076847;27;45274;-72
2022/08/14 11:45:26;;;;;;;;;6.50;6.50;;;;;31.91;29.69;99756.16;5076766;27;45356;-71
2022/08/14 11:47:54;;;;;;;;;6.00;6.00;;;;;31.94;29.01;99763.03;5076065;27;46236;-69
2022/08/14 11:50:26;;;;;;;;;7.00;7.00;;;;;31.94;29.57;99782.06;5075865;27;45408;-68
2022/08/14 11:52:56;;;;;;;;;4.00;4.00;;;;;31.94;29.17;99773.91;5075689;27;45397;-69